sensor_id;sensor_type;location;lat;lon;timestamp;temperature;humidity
10233;DHT22;5161;48.174;11.756;2023-03-24T00:00:58;14.70;61.00
10233;DHT22;5161;48.174;11.756;2023-03-24T00:03:24;14.70;61.00
10233;DHT22;5161;48.174;11.756;2023-03-24T00:05:55;14.70;61.10
10233;DHT22;5161;48.174;11.756;2023-03-24T00:08:23;14.70;61.10
10233;DHT22;5161;48.174;11.756;2023-03-24T00:10:48;14.70;60.90
10233;DHT22;5161;48.174;11.756;2023-03-24T00:13:15;14.70;60.90
10233;DHT22;5161;48.174;11.756;2023-03-24T00:15:41;14.70;60.80
10233;DHT22;5161;48.174;11.756;2023-03-24T00:18:06;14.70;60.80
10233;DHT22;5161;48.174;11.756;2023-03-24T00:20:35;14.70;60.80
10233;DHT22;5161;48.174;11.756;2023-03-24T00:23:01;14.70;60.80
10233;DHT22;5161;48.174;11.756;2023-03-24T00:25:29;14.70;60.70
10233;DHT22;5161;48.174;11.756;2023-03-24T00:27:58;14.70;60.60
10233;DHT22;5161;48.174;11.756;2023-03-24T00:30:24;14.60;60.60
10233;DHT22;5161;48.174;11.756;2023-03-24T00:32:50;14.60;60.70
10233;DHT22;5161;48.174;11.756;2023-03-24T00:35:17;14.60;60.70
10233;DHT22;5161;48.174;11.756;2023-03-24T00:37:43;14.60;60.80
10233;DHT22;5161;48.174;11.756;2023-03-24T00:40:15;14.50;61.20
10233;DHT22;5161;48.174;11.756;2023-03-24T00:42:41;14.50;60.60
10233;DHT22;5161;48.174;11.756;2023-03-24T00:45:12;14.50;60.70
10233;DHT22;5161;48.174;11.756;2023-03-24T00:47:39;14.50;60.50
10233;DHT22;5161;48.174;11.756;2023-03-24T00:50:06;14.50;60.40
10233;DHT22;5161;48.174;11.756;2023-03-24T00:52:32;14.50;60.50
10233;DHT22;5161;48.174;11.756;2023-03-24T00:54:59;14.40;60.40
10233;DHT22;5161;48.174;11.756;2023-03-24T00:57:27;14.50;60.40
10233;DHT22;5161;48.174;11.756;2023-03-24T00:59:54;14.50;60.40
10233;DHT22;5161;48.174;11.756;2023-03-24T01:02:23;14.50;60.20
10233;DHT22;5161;48.174;11.756;2023-03-24T01:04:57;14.50;60.30
10233;DHT22;5161;48.174;11.756;2023-03-24T01:07:25;14.50;60.30
10233;DHT22;5161;48.174;11.756;2023-03-24T01:09:51;14.50;60.10
10233;DHT22;5161;48.174;11.756;2023-03-24T01:12:28;14.50;60.20
10233;DHT22;5161;48.174;11.756;2023-03-24T01:14:55;14.50;60.10
10233;DHT22;5161;48.174;11.756;2023-03-24T01:17:22;14.50;60.10
10233;DHT22;5161;48.174;11.756;2023-03-24T01:19:50;14.50;59.90
10233;DHT22;5161;48.174;11.756;2023-03-24T01:22:16;14.40;59.90
10233;DHT22;5161;48.174;11.756;2023-03-24T01:24:42;14.40;59.90
10233;DHT22;5161;48.174;11.756;2023-03-24T01:27:08;14.40;59.90
10233;DHT22;5161;48.174;11.756;2023-03-24T01:29:34;14.40;59.90
10233;DHT22;5161;48.174;11.756;2023-03-24T01:32:00;14.40;59.90
10233;DHT22;5161;48.174;11.756;2023-03-24T01:34:26;14.40;59.90
10233;DHT22;5161;48.174;11.756;2023-03-24T01:36:51;14.40;59.70
10233;DHT22;5161;48.174;11.756;2023-03-24T01:39:17;14.30;59.80
10233;DHT22;5161;48.174;11.756;2023-03-24T01:41:43;14.30;59.90
10233;DHT22;5161;48.174;11.756;2023-03-24T01:46:53;14.30;59.80
10233;DHT22;5161;48.174;11.756;2023-03-24T01:49:20;14.30;59.80
10233;DHT22;5161;48.174;11.756;2023-03-24T01:51:48;14.20;59.80
10233;DHT22;5161;48.174;11.756;2023-03-24T01:54:32;14.20;59.90
10233;DHT22;5161;48.174;11.756;2023-03-24T01:57:12;14.20;60.00
10233;DHT22;5161;48.174;11.756;2023-03-24T01:59:41;14.20;59.90
10233;DHT22;5161;48.174;11.756;2023-03-24T02:02:08;14.20;60.10
10233;DHT22;5161;48.174;11.756;2023-03-24T02:04:37;14.20;60.10
10233;DHT22;5161;48.174;11.756;2023-03-24T02:07:15;14.20;60.10
10233;DHT22;5161;48.174;11.756;2023-03-24T02:09:42;14.10;60.00
10233;DHT22;5161;48.174;11.756;2023-03-24T02:12:09;14.10;60.00
10233;DHT22;5161;48.174;11.756;2023-03-24T02:14:35;14.00;60.00
10233;DHT22;5161;48.174;11.756;2023-03-24T02:17:13;14.10;60.10
10233;DHT22;5161;48.174;11.756;2023-03-24T02:25:41;14.00;60.40
10233;DHT22;5161;48.174;11.756;2023-03-24T02:28:22;14.00;60.50
10233;DHT22;5161;48.174;11.756;2023-03-24T02:31:06;14.00;60.40
10233;DHT22;5161;48.174;11.756;2023-03-24T02:49:46;13.90;60.70
10233;DHT22;5161;48.174;11.756;2023-03-24T02:52:42;13.90;60.80
10233;DHT22;5161;48.174;11.756;2023-03-24T02:55:34;13.90;60.90
10233;DHT22;5161;48.174;11.756;2023-03-24T02:58:07;13.90;60.70
10233;DHT22;5161;48.174;11.756;2023-03-24T03:00:42;13.90;60.80
10233;DHT22;5161;48.174;11.756;2023-03-24T03:03:17;13.90;60.90
10233;DHT22;5161;48.174;11.756;2023-03-24T03:05:53;14.00;61.10
10233;DHT22;5161;48.174;11.756;2023-03-24T03:08:24;14.00;61.10
10233;DHT22;5161;48.174;11.756;2023-03-24T03:10:52;14.00;61.30
10233;DHT22;5161;48.174;11.756;2023-03-24T03:13:41;14.00;61.30
10233;DHT22;5161;48.174;11.756;2023-03-24T03:16:21;14.00;61.30
10233;DHT22;5161;48.174;11.756;2023-03-24T03:18:55;14.00;61.60
10233;DHT22;5161;48.174;11.756;2023-03-24T03:21:25;14.00;61.10
10233;DHT22;5161;48.174;11.756;2023-03-24T03:24:01;14.00;61.40
10233;DHT22;5161;48.174;11.756;2023-03-24T03:26:30;14.00;61.50
10233;DHT22;5161;48.174;11.756;2023-03-24T03:29:00;14.00;61.50
10233;DHT22;5161;48.174;11.756;2023-03-24T03:31:35;14.10;61.50
10233;DHT22;5161;48.174;11.756;2023-03-24T03:34:13;14.10;61.40
10233;DHT22;5161;48.174;11.756;2023-03-24T03:39:53;14.00;61.30
10233;DHT22;5161;48.174;11.756;2023-03-24T03:42:20;14.00;61.30
10233;DHT22;5161;48.174;11.756;2023-03-24T03:44:46;14.00;61.50
10233;DHT22;5161;48.174;11.756;2023-03-24T03:47:12;14.00;61.70
10233;DHT22;5161;48.174;11.756;2023-03-24T03:49:39;14.00;61.70
10233;DHT22;5161;48.174;11.756;2023-03-24T03:52:05;14.00;61.80
10233;DHT22;5161;48.174;11.756;2023-03-24T03:54:31;14.10;61.80
10233;DHT22;5161;48.174;11.756;2023-03-24T03:56:58;14.00;61.70
10233;DHT22;5161;48.174;11.756;2023-03-24T03:59:33;14.00;61.80
10233;DHT22;5161;48.174;11.756;2023-03-24T04:08:29;14.00;62.10
10233;DHT22;5161;48.174;11.756;2023-03-24T04:14:10;14.00;62.20
10233;DHT22;5161;48.174;11.756;2023-03-24T04:24:47;14.10;62.20
10233;DHT22;5161;48.174;11.756;2023-03-24T04:32:54;14.10;62.00
10233;DHT22;5161;48.174;11.756;2023-03-24T04:37:58;14.00;62.00
10233;DHT22;5161;48.174;11.756;2023-03-24T04:40:28;14.00;61.80
10233;DHT22;5161;48.174;11.756;2023-03-24T04:42:59;14.10;61.90
10233;DHT22;5161;48.174;11.756;2023-03-24T04:45:28;14.10;61.90
10233;DHT22;5161;48.174;11.756;2023-03-24T04:48:00;14.10;61.90
10233;DHT22;5161;48.174;11.756;2023-03-24T04:50:40;14.00;61.80
10233;DHT22;5161;48.174;11.756;2023-03-24T04:53:08;14.00;62.00
10233;DHT22;5161;48.174;11.756;2023-03-24T04:58:16;14.00;62.00
10233;DHT22;5161;48.174;11.756;2023-03-24T05:00:42;14.00;62.00
10233;DHT22;5161;48.174;11.756;2023-03-24T05:03:11;14.00;61.90
10233;DHT22;5161;48.174;11.756;2023-03-24T05:05:45;14.00;61.70
10233;DHT22;5161;48.174;11.756;2023-03-24T05:08:11;14.00;62.00
10233;DHT22;5161;48.174;11.756;2023-03-24T05:10:37;14.10;61.90
10233;DHT22;5161;48.174;11.756;2023-03-24T05:13:04;14.00;61.70
10233;DHT22;5161;48.174;11.756;2023-03-24T05:15:30;14.10;61.70
10233;DHT22;5161;48.174;11.756;2023-03-24T05:17:56;14.00;61.50
10233;DHT22;5161;48.174;11.756;2023-03-24T05:20:22;13.90;61.50
10233;DHT22;5161;48.174;11.756;2023-03-24T05:22:49;13.90;62.20
10233;DHT22;5161;48.174;11.756;2023-03-24T05:25:15;14.00;61.60
10233;DHT22;5161;48.174;11.756;2023-03-24T05:27:41;14.00;61.70
10233;DHT22;5161;48.174;11.756;2023-03-24T05:30:07;14.00;61.80
10233;DHT22;5161;48.174;11.756;2023-03-24T05:32:33;13.90;61.60
10233;DHT22;5161;48.174;11.756;2023-03-24T05:34:59;14.00;61.70
10233;DHT22;5161;48.174;11.756;2023-03-24T05:37:25;14.00;61.80
10233;DHT22;5161;48.174;11.756;2023-03-24T05:39:52;14.00;61.80
10233;DHT22;5161;48.174;11.756;2023-03-24T05:42:18;14.00;61.80
10233;DHT22;5161;48.174;11.756;2023-03-24T05:44:44;14.00;61.80
10233;DHT22;5161;48.174;11.756;2023-03-24T05:47:10;13.90;61.70
10233;DHT22;5161;48.174;11.756;2023-03-24T05:49:37;13.90;62.70
10233;DHT22;5161;48.174;11.756;2023-03-24T05:52:03;13.90;62.10
10233;DHT22;5161;48.174;11.756;2023-03-24T05:54:30;13.90;62.60
10233;DHT22;5161;48.174;11.756;2023-03-24T05:56:58;13.90;63.00
10233;DHT22;5161;48.174;11.756;2023-03-24T05:59:24;13.80;62.40
10233;DHT22;5161;48.174;11.756;2023-03-24T06:01:50;13.90;62.70
10233;DHT22;5161;48.174;11.756;2023-03-24T06:04:18;13.90;62.60
10233;DHT22;5161;48.174;11.756;2023-03-24T06:06:45;13.90;62.70
10233;DHT22;5161;48.174;11.756;2023-03-24T06:09:11;14.00;62.80
10233;DHT22;5161;48.174;11.756;2023-03-24T06:11:38;14.10;63.00
10233;DHT22;5161;48.174;11.756;2023-03-24T06:14:04;14.10;63.00
10233;DHT22;5161;48.174;11.756;2023-03-24T06:16:29;14.10;63.30
10233;DHT22;5161;48.174;11.756;2023-03-24T06:18:58;14.20;63.20
10233;DHT22;5161;48.174;11.756;2023-03-24T06:21:25;14.30;64.20
10233;DHT22;5161;48.174;11.756;2023-03-24T06:23:56;14.30;63.80
10233;DHT22;5161;48.174;11.756;2023-03-24T06:26:23;14.30;63.60
10233;DHT22;5161;48.174;11.756;2023-03-24T06:28:48;14.40;64.30
10233;DHT22;5161;48.174;11.756;2023-03-24T06:31:16;14.40;63.90
10233;DHT22;5161;48.174;11.756;2023-03-24T06:33:45;14.50;64.10
10233;DHT22;5161;48.174;11.756;2023-03-24T06:36:11;14.50;64.00
10233;DHT22;5161;48.174;11.756;2023-03-24T06:38:37;14.50;63.90
10233;DHT22;5161;48.174;11.756;2023-03-24T06:41:03;14.50;63.90
10233;DHT22;5161;48.174;11.756;2023-03-24T06:43:30;14.40;63.80
10233;DHT22;5161;48.174;11.756;2023-03-24T06:45:56;14.50;64.10
10233;DHT22;5161;48.174;11.756;2023-03-24T06:48:22;14.50;64.00
10233;DHT22;5161;48.174;11.756;2023-03-24T06:50:48;14.40;64.00
10233;DHT22;5161;48.174;11.756;2023-03-24T06:53:15;14.40;63.90
10233;DHT22;5161;48.174;11.756;2023-03-24T06:55:41;14.40;63.90
10233;DHT22;5161;48.174;11.756;2023-03-24T06:58:07;14.40;64.00
10233;DHT22;5161;48.174;11.756;2023-03-24T07:00:32;14.40;63.90
10233;DHT22;5161;48.174;11.756;2023-03-24T07:02:59;14.40;64.00
10233;DHT22;5161;48.174;11.756;2023-03-24T07:05:26;14.40;64.00
10233;DHT22;5161;48.174;11.756;2023-03-24T07:07:52;14.30;64.00
10233;DHT22;5161;48.174;11.756;2023-03-24T07:10:18;14.20;63.90
10233;DHT22;5161;48.174;11.756;2023-03-24T07:12:44;14.20;64.10
10233;DHT22;5161;48.174;11.756;2023-03-24T07:15:10;14.20;64.80
10233;DHT22;5161;48.174;11.756;2023-03-24T07:17:36;14.20;64.60
10233;DHT22;5161;48.174;11.756;2023-03-24T07:20:01;14.20;64.50
10233;DHT22;5161;48.174;11.756;2023-03-24T07:22:31;14.10;64.50
10233;DHT22;5161;48.174;11.756;2023-03-24T07:24:56;14.20;64.80
10233;DHT22;5161;48.174;11.756;2023-03-24T07:27:22;14.20;65.00
10233;DHT22;5161;48.174;11.756;2023-03-24T07:29:48;14.20;65.10
10233;DHT22;5161;48.174;11.756;2023-03-24T07:32:13;14.20;65.90
10233;DHT22;5161;48.174;11.756;2023-03-24T07:34:39;14.20;66.10
10233;DHT22;5161;48.174;11.756;2023-03-24T07:37:05;14.30;65.50
10233;DHT22;5161;48.174;11.756;2023-03-24T07:39:31;14.20;65.40
10233;DHT22;5161;48.174;11.756;2023-03-24T07:41:57;14.30;65.60
10233;DHT22;5161;48.174;11.756;2023-03-24T07:44:22;14.20;65.60
10233;DHT22;5161;48.174;11.756;2023-03-24T07:46:48;14.30;66.10
10233;DHT22;5161;48.174;11.756;2023-03-24T07:49:13;14.20;65.90
10233;DHT22;5161;48.174;11.756;2023-03-24T07:51:39;14.20;66.00
10233;DHT22;5161;48.174;11.756;2023-03-24T07:54:05;14.20;66.20
10233;DHT22;5161;48.174;11.756;2023-03-24T07:56:30;14.20;66.30
10233;DHT22;5161;48.174;11.756;2023-03-24T07:58:56;14.10;66.60
10233;DHT22;5161;48.174;11.756;2023-03-24T08:01:22;14.10;66.70
10233;DHT22;5161;48.174;11.756;2023-03-24T08:03:48;14.10;67.10
10233;DHT22;5161;48.174;11.756;2023-03-24T08:06:18;14.00;66.80
10233;DHT22;5161;48.174;11.756;2023-03-24T08:08:44;14.00;66.80
10233;DHT22;5161;48.174;11.756;2023-03-24T08:11:10;14.00;66.80
10233;DHT22;5161;48.174;11.756;2023-03-24T08:13:35;14.00;66.70
10233;DHT22;5161;48.174;11.756;2023-03-24T08:16:01;14.00;66.80
10233;DHT22;5161;48.174;11.756;2023-03-24T08:18:27;14.00;66.80
10233;DHT22;5161;48.174;11.756;2023-03-24T08:20:57;14.10;66.90
10233;DHT22;5161;48.174;11.756;2023-03-24T08:23:23;14.10;67.00
10233;DHT22;5161;48.174;11.756;2023-03-24T08:25:49;14.20;66.90
10233;DHT22;5161;48.174;11.756;2023-03-24T08:28:15;14.30;67.00
10233;DHT22;5161;48.174;11.756;2023-03-24T08:30:41;14.20;66.70
10233;DHT22;5161;48.174;11.756;2023-03-24T08:33:10;14.20;66.80
10233;DHT22;5161;48.174;11.756;2023-03-24T08:35:36;14.20;66.90
10233;DHT22;5161;48.174;11.756;2023-03-24T08:38:08;14.20;67.00
10233;DHT22;5161;48.174;11.756;2023-03-24T08:40:35;14.30;67.10
10233;DHT22;5161;48.174;11.756;2023-03-24T08:43:03;14.40;67.20
10233;DHT22;5161;48.174;11.756;2023-03-24T08:45:31;14.40;67.30
10233;DHT22;5161;48.174;11.756;2023-03-24T08:47:59;14.40;67.40
10233;DHT22;5161;48.174;11.756;2023-03-24T08:50:27;14.40;67.50
10233;DHT22;5161;48.174;11.756;2023-03-24T08:52:54;14.40;67.60
10233;DHT22;5161;48.174;11.756;2023-03-24T08:55:20;14.50;67.60
10233;DHT22;5161;48.174;11.756;2023-03-24T08:57:47;14.60;67.60
10233;DHT22;5161;48.174;11.756;2023-03-24T09:00:14;14.60;67.60
10233;DHT22;5161;48.174;11.756;2023-03-24T09:02:44;14.70;67.40
10233;DHT22;5161;48.174;11.756;2023-03-24T09:05:11;14.70;67.30
10233;DHT22;5161;48.174;11.756;2023-03-24T09:07:37;14.70;67.30
10233;DHT22;5161;48.174;11.756;2023-03-24T09:10:04;14.70;67.40
10233;DHT22;5161;48.174;11.756;2023-03-24T09:12:31;14.70;67.50
10233;DHT22;5161;48.174;11.756;2023-03-24T09:14:56;14.80;67.50
10233;DHT22;5161;48.174;11.756;2023-03-24T09:17:22;14.80;67.70
10233;DHT22;5161;48.174;11.756;2023-03-24T09:19:47;14.80;67.70
10233;DHT22;5161;48.174;11.756;2023-03-24T09:22:13;14.80;67.70
10233;DHT22;5161;48.174;11.756;2023-03-24T09:24:39;14.90;67.80
10233;DHT22;5161;48.174;11.756;2023-03-24T09:27:05;14.80;67.80
10233;DHT22;5161;48.174;11.756;2023-03-24T09:29:30;14.90;68.00
10233;DHT22;5161;48.174;11.756;2023-03-24T09:31:56;14.90;68.10
10233;DHT22;5161;48.174;11.756;2023-03-24T09:34:23;15.00;68.20
10233;DHT22;5161;48.174;11.756;2023-03-24T09:36:50;15.00;68.20
10233;DHT22;5161;48.174;11.756;2023-03-24T09:39:15;15.00;68.70
10233;DHT22;5161;48.174;11.756;2023-03-24T09:41:42;15.00;68.40
10233;DHT22;5161;48.174;11.756;2023-03-24T09:44:33;15.00;68.20
10233;DHT22;5161;48.174;11.756;2023-03-24T09:47:26;15.00;68.40
10233;DHT22;5161;48.174;11.756;2023-03-24T09:49:56;14.90;68.90
10233;DHT22;5161;48.174;11.756;2023-03-24T09:52:28;14.90;69.30
10233;DHT22;5161;48.174;11.756;2023-03-24T09:54:57;14.90;69.10
10233;DHT22;5161;48.174;11.756;2023-03-24T09:57:24;14.90;69.60
10233;DHT22;5161;48.174;11.756;2023-03-24T09:59:51;14.90;70.00
10233;DHT22;5161;48.174;11.756;2023-03-24T10:02:19;14.90;69.60
10233;DHT22;5161;48.174;11.756;2023-03-24T10:04:46;14.80;70.10
10233;DHT22;5161;48.174;11.756;2023-03-24T10:09:56;14.80;70.30
10233;DHT22;5161;48.174;11.756;2023-03-24T10:12:36;14.80;70.40
10233;DHT22;5161;48.174;11.756;2023-03-24T10:17:38;14.70;71.10
10233;DHT22;5161;48.174;11.756;2023-03-24T10:25:24;14.70;71.70
10233;DHT22;5161;48.174;11.756;2023-03-24T10:27:59;14.60;71.60
10233;DHT22;5161;48.174;11.756;2023-03-24T10:30:30;14.70;71.90
10233;DHT22;5161;48.174;11.756;2023-03-24T10:32:56;14.70;72.10
10233;DHT22;5161;48.174;11.756;2023-03-24T10:35:34;14.70;73.00
10233;DHT22;5161;48.174;11.756;2023-03-24T10:38:07;14.60;72.90
10233;DHT22;5161;48.174;11.756;2023-03-24T10:40:36;14.60;72.40
10233;DHT22;5161;48.174;11.756;2023-03-24T10:43:03;14.60;72.70
10233;DHT22;5161;48.174;11.756;2023-03-24T10:45:32;14.60;73.00
10233;DHT22;5161;48.174;11.756;2023-03-24T10:48:00;14.50;73.20
10233;DHT22;5161;48.174;11.756;2023-03-24T10:50:31;14.60;73.90
10233;DHT22;5161;48.174;11.756;2023-03-24T10:52:57;14.60;73.90
10233;DHT22;5161;48.174;11.756;2023-03-24T10:55:29;14.60;73.10
10233;DHT22;5161;48.174;11.756;2023-03-24T10:57:57;14.60;73.20
10233;DHT22;5161;48.174;11.756;2023-03-24T11:00:28;14.60;73.70
10233;DHT22;5161;48.174;11.756;2023-03-24T11:03:01;14.70;73.60
10233;DHT22;5161;48.174;11.756;2023-03-24T11:05:31;14.70;73.70
10233;DHT22;5161;48.174;11.756;2023-03-24T11:08:13;14.70;73.40
10233;DHT22;5161;48.174;11.756;2023-03-24T11:10:43;14.70;73.50
10233;DHT22;5161;48.174;11.756;2023-03-24T11:13:17;14.60;72.90
10233;DHT22;5161;48.174;11.756;2023-03-24T11:18:34;14.50;73.10
10233;DHT22;5161;48.174;11.756;2023-03-24T11:21:03;14.50;73.10
10233;DHT22;5161;48.174;11.756;2023-03-24T11:23:31;14.40;73.30
10233;DHT22;5161;48.174;11.756;2023-03-24T11:26:07;14.40;72.90
10233;DHT22;5161;48.174;11.756;2023-03-24T11:28:39;14.40;73.20
10233;DHT22;5161;48.174;11.756;2023-03-24T11:31:10;14.40;74.10
10233;DHT22;5161;48.174;11.756;2023-03-24T11:33:49;14.40;73.30
10233;DHT22;5161;48.174;11.756;2023-03-24T11:41:24;14.20;74.10
10233;DHT22;5161;48.174;11.756;2023-03-24T11:43:49;14.20;74.10
10233;DHT22;5161;48.174;11.756;2023-03-24T11:46:17;14.10;74.40
10233;DHT22;5161;48.174;11.756;2023-03-24T11:48:50;14.10;74.50
10233;DHT22;5161;48.174;11.756;2023-03-24T11:51:31;14.00;74.30
10233;DHT22;5161;48.174;11.756;2023-03-24T11:53:58;14.10;75.00
10233;DHT22;5161;48.174;11.756;2023-03-24T11:56:50;14.20;75.00
10233;DHT22;5161;48.174;11.756;2023-03-24T12:10:22;14.40;76.40
10233;DHT22;5161;48.174;11.756;2023-03-24T12:26:28;15.10;76.50
10233;DHT22;5161;48.174;11.756;2023-03-24T12:28:56;15.10;75.60
10233;DHT22;5161;48.174;11.756;2023-03-24T12:31:30;15.10;75.80
10233;DHT22;5161;48.174;11.756;2023-03-24T12:50:18;15.20;75.10
10233;DHT22;5161;48.174;11.756;2023-03-24T12:55:50;15.30;75.00
10233;DHT22;5161;48.174;11.756;2023-03-24T12:58:30;15.30;74.30
10233;DHT22;5161;48.174;11.756;2023-03-24T13:03:49;15.20;72.70
10233;DHT22;5161;48.174;11.756;2023-03-24T13:06:26;15.20;72.60
10233;DHT22;5161;48.174;11.756;2023-03-24T13:12:27;15.20;73.20
10233;DHT22;5161;48.174;11.756;2023-03-24T13:17:49;15.30;73.80
10233;DHT22;5161;48.174;11.756;2023-03-24T13:20:44;15.30;72.90
10233;DHT22;5161;48.174;11.756;2023-03-24T13:28:43;15.40;73.20
10233;DHT22;5161;48.174;11.756;2023-03-24T13:31:12;15.40;73.20
10233;DHT22;5161;48.174;11.756;2023-03-24T13:33:39;15.30;72.90
10233;DHT22;5161;48.174;11.756;2023-03-24T13:36:30;15.30;73.80
10233;DHT22;5161;48.174;11.756;2023-03-24T13:39:03;15.20;74.40
10233;DHT22;5161;48.174;11.756;2023-03-24T13:41:36;15.10;74.40
10233;DHT22;5161;48.174;11.756;2023-03-24T13:44:14;15.10;74.30
10233;DHT22;5161;48.174;11.756;2023-03-24T13:46:42;15.00;74.30
10233;DHT22;5161;48.174;11.756;2023-03-24T13:49:13;15.00;74.10
10233;DHT22;5161;48.174;11.756;2023-03-24T13:51:45;15.00;74.60
10233;DHT22;5161;48.174;11.756;2023-03-24T13:54:20;15.00;74.00
10233;DHT22;5161;48.174;11.756;2023-03-24T13:57:10;14.90;73.50
10233;DHT22;5161;48.174;11.756;2023-03-24T14:02:41;14.90;74.10
10233;DHT22;5161;48.174;11.756;2023-03-24T14:10:39;14.90;75.10
10233;DHT22;5161;48.174;11.756;2023-03-24T14:15:56;14.70;75.20
10233;DHT22;5161;48.174;11.756;2023-03-24T14:20:59;14.60;75.20
10233;DHT22;5161;48.174;11.756;2023-03-24T14:23:42;14.60;75.00
10233;DHT22;5161;48.174;11.756;2023-03-24T14:26:12;14.60;74.20
10233;DHT22;5161;48.174;11.756;2023-03-24T14:28:42;14.70;74.30
10233;DHT22;5161;48.174;11.756;2023-03-24T14:33:43;14.70;73.50
10233;DHT22;5161;48.174;11.756;2023-03-24T14:41:52;14.70;72.30
10233;DHT22;5161;48.174;11.756;2023-03-24T14:47:17;14.70;72.30
10233;DHT22;5161;48.174;11.756;2023-03-24T14:49:46;14.70;71.30
10233;DHT22;5161;48.174;11.756;2023-03-24T14:52:17;14.70;71.30
10233;DHT22;5161;48.174;11.756;2023-03-24T14:54:57;14.60;71.00
10233;DHT22;5161;48.174;11.756;2023-03-24T14:57:25;14.60;70.80
10233;DHT22;5161;48.174;11.756;2023-03-24T15:00:15;14.60;71.00
10233;DHT22;5161;48.174;11.756;2023-03-24T15:02:45;14.60;70.30
10233;DHT22;5161;48.174;11.756;2023-03-24T15:05:29;14.60;69.90
10233;DHT22;5161;48.174;11.756;2023-03-24T15:08:16;14.50;70.10
10233;DHT22;5161;48.174;11.756;2023-03-24T15:13:31;14.60;70.00
10233;DHT22;5161;48.174;11.756;2023-03-24T15:15:58;14.50;70.60
10233;DHT22;5161;48.174;11.756;2023-03-24T15:18:24;14.60;71.00
10233;DHT22;5161;48.174;11.756;2023-03-24T15:20:50;14.60;70.50
10233;DHT22;5161;48.174;11.756;2023-03-24T15:23:26;14.70;71.20
10233;DHT22;5161;48.174;11.756;2023-03-24T15:25:55;14.70;71.10
10233;DHT22;5161;48.174;11.756;2023-03-24T15:28:28;14.80;70.20
10233;DHT22;5161;48.174;11.756;2023-03-24T15:30:55;14.70;69.90
10233;DHT22;5161;48.174;11.756;2023-03-24T15:33:23;14.60;69.90
10233;DHT22;5161;48.174;11.756;2023-03-24T15:35:55;14.70;70.10
10233;DHT22;5161;48.174;11.756;2023-03-24T15:38:30;14.70;70.30
10233;DHT22;5161;48.174;11.756;2023-03-24T15:41:02;14.70;70.30
10233;DHT22;5161;48.174;11.756;2023-03-24T15:43:29;14.70;69.40
10233;DHT22;5161;48.174;11.756;2023-03-24T15:45:56;14.70;69.60
10233;DHT22;5161;48.174;11.756;2023-03-24T15:48:26;14.60;69.00
10233;DHT22;5161;48.174;11.756;2023-03-24T15:50:58;14.60;70.10
10233;DHT22;5161;48.174;11.756;2023-03-24T15:56:13;14.40;69.00
10233;DHT22;5161;48.174;11.756;2023-03-24T15:58:55;14.40;69.40
10233;DHT22;5161;48.174;11.756;2023-03-24T16:01:28;14.40;69.60
10233;DHT22;5161;48.174;11.756;2023-03-24T16:04:17;14.40;68.60
10233;DHT22;5161;48.174;11.756;2023-03-24T16:06:51;14.40;69.10
10233;DHT22;5161;48.174;11.756;2023-03-24T16:09:20;14.30;68.90
10233;DHT22;5161;48.174;11.756;2023-03-24T16:11:46;14.20;68.40
10233;DHT22;5161;48.174;11.756;2023-03-24T16:14:25;14.10;69.10
10233;DHT22;5161;48.174;11.756;2023-03-24T16:16:59;14.10;69.80
10233;DHT22;5161;48.174;11.756;2023-03-24T16:19:25;14.10;70.80
10233;DHT22;5161;48.174;11.756;2023-03-24T16:21:51;14.10;70.80
10233;DHT22;5161;48.174;11.756;2023-03-24T16:24:16;14.00;71.10
10233;DHT22;5161;48.174;11.756;2023-03-24T16:26:42;14.00;71.60
10233;DHT22;5161;48.174;11.756;2023-03-24T16:31:44;13.70;72.40
10233;DHT22;5161;48.174;11.756;2023-03-24T16:34:13;13.70;72.70
10233;DHT22;5161;48.174;11.756;2023-03-24T16:36:39;13.70;73.60
10233;DHT22;5161;48.174;11.756;2023-03-24T16:39:12;13.60;74.10
10233;DHT22;5161;48.174;11.756;2023-03-24T16:41:39;13.50;74.40
10233;DHT22;5161;48.174;11.756;2023-03-24T16:44:04;13.40;74.00
10233;DHT22;5161;48.174;11.756;2023-03-24T16:46:32;13.20;74.30
10233;DHT22;5161;48.174;11.756;2023-03-24T16:48:58;13.30;74.60
10233;DHT22;5161;48.174;11.756;2023-03-24T16:51:24;13.30;75.10
10233;DHT22;5161;48.174;11.756;2023-03-24T16:53:51;13.30;75.60
10233;DHT22;5161;48.174;11.756;2023-03-24T16:56:19;13.20;76.10
10233;DHT22;5161;48.174;11.756;2023-03-24T16:58:46;13.10;76.80
10233;DHT22;5161;48.174;11.756;2023-03-24T17:01:18;13.10;75.90
10233;DHT22;5161;48.174;11.756;2023-03-24T17:03:55;13.10;76.60
10233;DHT22;5161;48.174;11.756;2023-03-24T17:06:22;13.10;76.40
10233;DHT22;5161;48.174;11.756;2023-03-24T17:08:48;13.10;76.50
10233;DHT22;5161;48.174;11.756;2023-03-24T17:11:34;13.10;76.40
10233;DHT22;5161;48.174;11.756;2023-03-24T17:14:00;13.10;76.10
10233;DHT22;5161;48.174;11.756;2023-03-24T17:16:29;13.00;75.70
10233;DHT22;5161;48.174;11.756;2023-03-24T17:18:56;13.10;76.50
10233;DHT22;5161;48.174;11.756;2023-03-24T17:21:22;13.10;76.10
10233;DHT22;5161;48.174;11.756;2023-03-24T17:23:49;13.00;76.60
10233;DHT22;5161;48.174;11.756;2023-03-24T17:26:22;13.00;76.10
10233;DHT22;5161;48.174;11.756;2023-03-24T17:28:48;13.00;76.20
10233;DHT22;5161;48.174;11.756;2023-03-24T17:31:14;12.90;76.40
10233;DHT22;5161;48.174;11.756;2023-03-24T17:33:40;12.80;76.30
10233;DHT22;5161;48.174;11.756;2023-03-24T17:36:06;12.70;76.50
10233;DHT22;5161;48.174;11.756;2023-03-24T17:38:32;12.70;76.50
10233;DHT22;5161;48.174;11.756;2023-03-24T17:41:02;12.60;76.60
10233;DHT22;5161;48.174;11.756;2023-03-24T17:43:28;12.50;76.60
10233;DHT22;5161;48.174;11.756;2023-03-24T17:45:57;12.40;76.80
10233;DHT22;5161;48.174;11.756;2023-03-24T17:48:23;12.40;77.50
10233;DHT22;5161;48.174;11.756;2023-03-24T17:50:49;12.50;76.90
10233;DHT22;5161;48.174;11.756;2023-03-24T17:53:15;12.50;76.60
10233;DHT22;5161;48.174;11.756;2023-03-24T17:55:41;12.60;76.60
10233;DHT22;5161;48.174;11.756;2023-03-24T17:58:07;12.60;76.30
10233;DHT22;5161;48.174;11.756;2023-03-24T18:00:33;12.60;76.20
10233;DHT22;5161;48.174;11.756;2023-03-24T18:02:59;12.50;75.30
10233;DHT22;5161;48.174;11.756;2023-03-24T18:05:25;12.40;75.20
10233;DHT22;5161;48.174;11.756;2023-03-24T18:07:50;12.40;74.90
10233;DHT22;5161;48.174;11.756;2023-03-24T18:10:16;12.40;75.20
10233;DHT22;5161;48.174;11.756;2023-03-24T18:12:42;12.40;75.10
10233;DHT22;5161;48.174;11.756;2023-03-24T18:15:08;12.50;75.10
10233;DHT22;5161;48.174;11.756;2023-03-24T18:17:34;12.60;74.90
10233;DHT22;5161;48.174;11.756;2023-03-24T18:20:00;12.60;75.00
10233;DHT22;5161;48.174;11.756;2023-03-24T18:22:35;12.60;74.50
10233;DHT22;5161;48.174;11.756;2023-03-24T18:25:01;12.60;74.80
10233;DHT22;5161;48.174;11.756;2023-03-24T18:27:28;12.60;74.40
10233;DHT22;5161;48.174;11.756;2023-03-24T18:29:54;12.60;74.50